This is the latest recevied weather packets stored in our database for station/object IU6BJT. If no packets are shown the sender has not sent any weather packets the latest 10 day(s).
| Time | Temp. | Humidity | Pressure | Rain* | Wind** | Luminosity | Snow |
|---|---|---|---|---|---|---|---|
| 1778086834 | 18.89° C | 74% | 1010.5 hPa | 0.51 mm | - | - | - |
| 1778077245 | 20.56° C | 73% | 1010.1 hPa | 0 mm | - | - | - |
| 1778073023 | 21.11° C | 71% | 1010.8 hPa | 0 mm | - | - | - |
| 1778070631 | 20° C | 73% | 1010.9 hPa | 0 mm | - | - | - |
| 1778070027 | 20° C | 72% | 1011 hPa | 0 mm | - | - | - |
| 1778067635 | 20° C | 70% | 1011 hPa | 0 mm | - | - | - |
| 1778064016 | 20° C | 76% | 1011.1 hPa | 0 mm | - | - | - |
| 1778063453 | 20.56° C | 69% | 1011.3 hPa | 0 mm | - | - | - |
| 1778060442 | 19.44° C | 73% | 1011.7 hPa | 0 mm | - | - | - |
| 1778059231 | 20° C | 64% | 1011.6 hPa | 0 mm | - | - | - |
| 1778056235 | 20.56° C | 62% | 1011.6 hPa | 0 mm | - | - | - |
| 1778053822 | 18.33° C | 77% | 1011.5 hPa | 0 mm | - | - | - |
| 1778052636 | 17.78° C | 84% | 1011.4 hPa | 0.25 mm | - | - | - |
| 1778051450 | 17.22° C | 85% | 1011.7 hPa | 1.02 mm | - | - | - |
| 1778047247 | 16.11° C | 85% | 1011.7 hPa | 0.25 mm | - | - | - |
| 1778046624 | 16.11° C | 83% | 1011.8 hPa | 0.25 mm | - | - | - |
| 1778046021 | 16.11° C | 83% | 1011.9 hPa | 0.25 mm | - | - | - |
| 1778044233 | 16.11° C | 81% | 1011.7 hPa | 0 mm | - | - | - |
| 1778042433 | 16.11° C | 81% | 1011.6 hPa | 0 mm | - | - | - |
| 1778041237 | 15.56° C | 84% | 1011.7 hPa | 0 mm | - | - | - |
| 1778040031 | 15.56° C | 84% | 1011.7 hPa | 0 mm | - | - | - |
| 1778038825 | 15.56° C | 85% | 1011.4 hPa | 0 mm | - | - | - |
| 1778036433 | 15° C | 87% | 1011.3 hPa | 0 mm | - | - | - |
| 1778033419 | 15.56° C | 83% | 1012.1 hPa | 0 mm | - | - | - |
| 1778032817 | 15.56° C | 84% | 1012 hPa | 0 mm | - | - | - |
* Rain latest hour (hover to see other rain measurements)
** Current wind speed in m/s (hover to see current wind gust speed)